sensor_id;sensor_type;location;lat;lon;timestamp;P1;durP1;ratioP1;P2;durP2;ratioP2
52360;SDS011;38294;42.966;1.608;2022-12-18T03:39:04;11.13;;;3.38;;
52360;SDS011;38294;42.966;1.608;2022-12-18T03:41:34;5.95;;;3.58;;
52360;SDS011;38294;42.966;1.608;2022-12-18T03:44:13;7.18;;;3.60;;
52360;SDS011;38294;42.966;1.608;2022-12-18T03:47:07;7.40;;;3.83;;
52360;SDS011;38294;42.966;1.608;2022-12-18T03:49:46;4.00;;;3.00;;
52360;SDS011;38294;42.966;1.608;2022-12-18T03:52:42;6.68;;;3.38;;
52360;SDS011;38294;42.966;1.608;2022-12-18T03:55:09;3.75;;;2.80;;
52360;SDS011;38294;42.966;1.608;2022-12-18T03:57:36;4.32;;;2.60;;
52360;SDS011;38294;42.966;1.608;2022-12-18T04:00:05;4.57;;;3.03;;
52360;SDS011;38294;42.966;1.608;2022-12-18T04:02:37;5.00;;;2.92;;
52360;SDS011;38294;42.966;1.608;2022-12-18T04:05:06;5.03;;;2.67;;
52360;SDS011;38294;42.966;1.608;2022-12-18T04:07:34;3.28;;;2.50;;
52360;SDS011;38294;42.966;1.608;2022-12-18T04:10:01;3.35;;;2.45;;
52360;SDS011;38294;42.966;1.608;2022-12-18T04:12:28;4.43;;;2.45;;
52360;SDS011;38294;42.966;1.608;2022-12-18T04:14:54;5.00;;;3.03;;
52360;SDS011;38294;42.966;1.608;2022-12-18T04:17:21;6.35;;;3.15;;
52360;SDS011;38294;42.966;1.608;2022-12-18T04:19:47;2.70;;;2.47;;
52360;SDS011;38294;42.966;1.608;2022-12-18T04:22:13;2.60;;;2.40;;
52360;SDS011;38294;42.966;1.608;2022-12-18T04:24:38;3.45;;;2.42;;
52360;SDS011;38294;42.966;1.608;2022-12-18T04:27:04;3.78;;;2.58;;
52360;SDS011;38294;42.966;1.608;2022-12-18T04:29:30;4.53;;;3.03;;
52360;SDS011;38294;42.966;1.608;2022-12-18T04:31:55;2.97;;;2.50;;
52360;SDS011;38294;42.966;1.608;2022-12-18T04:34:21;3.90;;;2.70;;
52360;SDS011;38294;42.966;1.608;2022-12-18T04:36:47;3.83;;;2.60;;
52360;SDS011;38294;42.966;1.608;2022-12-18T04:39:13;2.92;;;2.55;;
52360;SDS011;38294;42.966;1.608;2022-12-18T04:41:38;3.80;;;2.63;;
52360;SDS011;38294;42.966;1.608;2022-12-18T04:44:04;3.85;;;2.97;;
52360;SDS011;38294;42.966;1.608;2022-12-18T04:46:30;3.47;;;2.72;;
52360;SDS011;38294;42.966;1.608;2022-12-18T04:48:55;5.43;;;2.67;;
52360;SDS011;38294;42.966;1.608;2022-12-18T04:51:21;6.10;;;2.50;;
52360;SDS011;38294;42.966;1.608;2022-12-18T04:53:47;3.33;;;2.60;;
52360;SDS011;38294;42.966;1.608;2022-12-18T04:56:13;3.33;;;2.30;;
52360;SDS011;38294;42.966;1.608;2022-12-18T04:58:40;3.60;;;2.40;;
52360;SDS011;38294;42.966;1.608;2022-12-18T05:01:07;4.47;;;2.40;;
52360;SDS011;38294;42.966;1.608;2022-12-18T05:03:33;2.80;;;2.20;;
52360;SDS011;38294;42.966;1.608;2022-12-18T05:06:00;2.53;;;2.10;;
52360;SDS011;38294;42.966;1.608;2022-12-18T05:08:26;2.53;;;2.33;;
52360;SDS011;38294;42.966;1.608;2022-12-18T05:10:58;3.55;;;2.30;;
52360;SDS011;38294;42.966;1.608;2022-12-18T05:13:29;5.05;;;2.28;;
52360;SDS011;38294;42.966;1.608;2022-12-18T05:15:55;5.45;;;2.45;;
52360;SDS011;38294;42.966;1.608;2022-12-18T05:18:21;2.92;;;2.40;;
52360;SDS011;38294;42.966;1.608;2022-12-18T05:20:48;2.95;;;2.50;;
52360;SDS011;38294;42.966;1.608;2022-12-18T05:23:17;2.90;;;2.42;;
52360;SDS011;38294;42.966;1.608;2022-12-18T05:25:50;2.72;;;2.20;;
52360;SDS011;38294;42.966;1.608;2022-12-18T05:28:23;3.65;;;2.60;;
52360;SDS011;38294;42.966;1.608;2022-12-18T05:30:54;5.53;;;2.72;;
52360;SDS011;38294;42.966;1.608;2022-12-18T05:33:21;3.20;;;2.22;;
52360;SDS011;38294;42.966;1.608;2022-12-18T05:35:56;3.92;;;2.63;;
52360;SDS011;38294;42.966;1.608;2022-12-18T05:38:24;4.30;;;2.50;;
52360;SDS011;38294;42.966;1.608;2022-12-18T05:40:52;8.60;;;2.42;;
52360;SDS011;38294;42.966;1.608;2022-12-18T05:43:18;5.43;;;2.63;;
52360;SDS011;38294;42.966;1.608;2022-12-18T05:45:44;5.00;;;2.85;;
52360;SDS011;38294;42.966;1.608;2022-12-18T05:48:10;4.38;;;2.63;;
52360;SDS011;38294;42.966;1.608;2022-12-18T05:50:36;9.38;;;2.75;;
52360;SDS011;38294;42.966;1.608;2022-12-18T05:53:03;3.88;;;2.67;;
52360;SDS011;38294;42.966;1.608;2022-12-18T05:55:32;4.95;;;2.78;;
52360;SDS011;38294;42.966;1.608;2022-12-18T05:58:02;3.63;;;2.58;;
52360;SDS011;38294;42.966;1.608;2022-12-18T06:00:29;5.60;;;2.85;;
52360;SDS011;38294;42.966;1.608;2022-12-18T06:02:55;7.10;;;2.80;;
52360;SDS011;38294;42.966;1.608;2022-12-18T06:05:20;3.75;;;2.78;;
52360;SDS011;38294;42.966;1.608;2022-12-18T06:07:46;4.57;;;3.08;;
52360;SDS011;38294;42.966;1.608;2022-12-18T06:10:12;3.47;;;2.42;;
52360;SDS011;38294;42.966;1.608;2022-12-18T06:12:37;4.90;;;2.72;;
52360;SDS011;38294;42.966;1.608;2022-12-18T06:15:03;3.40;;;2.80;;
52360;SDS011;38294;42.966;1.608;2022-12-18T06:17:29;3.58;;;2.65;;
52360;SDS011;38294;42.966;1.608;2022-12-18T06:19:56;2.88;;;2.63;;
52360;SDS011;38294;42.966;1.608;2022-12-18T06:22:21;4.13;;;2.83;;
52360;SDS011;38294;42.966;1.608;2022-12-18T06:24:47;3.63;;;2.50;;
52360;SDS011;38294;42.966;1.608;2022-12-18T06:27:13;4.47;;;2.95;;
52360;SDS011;38294;42.966;1.608;2022-12-18T06:29:39;7.15;;;2.67;;
52360;SDS011;38294;42.966;1.608;2022-12-18T06:32:04;4.82;;;2.70;;
52360;SDS011;38294;42.966;1.608;2022-12-18T06:34:30;4.50;;;2.75;;
52360;SDS011;38294;42.966;1.608;2022-12-18T06:36:57;5.82;;;3.30;;
52360;SDS011;38294;42.966;1.608;2022-12-18T06:39:23;5.03;;;3.20;;
52360;SDS011;38294;42.966;1.608;2022-12-18T06:41:48;5.93;;;3.13;;
52360;SDS011;38294;42.966;1.608;2022-12-18T06:44:14;3.55;;;2.83;;
52360;SDS011;38294;42.966;1.608;2022-12-18T06:46:39;3.50;;;2.78;;
52360;SDS011;38294;42.966;1.608;2022-12-18T06:49:05;4.55;;;2.92;;
52360;SDS011;38294;42.966;1.608;2022-12-18T06:51:31;3.35;;;3.00;;
52360;SDS011;38294;42.966;1.608;2022-12-18T06:53:56;4.38;;;3.30;;
52360;SDS011;38294;42.966;1.608;2022-12-18T06:56:22;4.35;;;3.00;;
52360;SDS011;38294;42.966;1.608;2022-12-18T06:58:47;4.45;;;3.28;;
52360;SDS011;38294;42.966;1.608;2022-12-18T07:01:16;4.82;;;3.33;;
52360;SDS011;38294;42.966;1.608;2022-12-18T07:03:41;4.38;;;3.03;;
52360;SDS011;38294;42.966;1.608;2022-12-18T07:06:17;5.03;;;3.30;;
52360;SDS011;38294;42.966;1.608;2022-12-18T07:08:44;4.85;;;3.20;;
52360;SDS011;38294;42.966;1.608;2022-12-18T07:11:11;4.45;;;2.90;;
52360;SDS011;38294;42.966;1.608;2022-12-18T07:13:37;5.85;;;3.20;;
52360;SDS011;38294;42.966;1.608;2022-12-18T07:16:04;5.80;;;3.20;;
52360;SDS011;38294;42.966;1.608;2022-12-18T07:18:32;5.63;;;3.10;;
52360;SDS011;38294;42.966;1.608;2022-12-18T07:20:57;6.65;;;3.42;;
52360;SDS011;38294;42.966;1.608;2022-12-18T07:23:27;6.90;;;3.33;;
52360;SDS011;38294;42.966;1.608;2022-12-18T07:25:52;3.33;;;2.97;;
52360;SDS011;38294;42.966;1.608;2022-12-18T07:28:18;5.38;;;3.20;;
52360;SDS011;38294;42.966;1.608;2022-12-18T07:30:43;3.70;;;2.85;;
52360;SDS011;38294;42.966;1.608;2022-12-18T07:33:09;4.90;;;2.85;;
52360;SDS011;38294;42.966;1.608;2022-12-18T07:35:34;4.13;;;3.65;;
52360;SDS011;38294;42.966;1.608;2022-12-18T07:38:00;4.80;;;3.03;;
52360;SDS011;38294;42.966;1.608;2022-12-18T07:40:26;4.85;;;2.80;;
52360;SDS011;38294;42.966;1.608;2022-12-18T07:42:51;6.22;;;3.50;;
52360;SDS011;38294;42.966;1.608;2022-12-18T07:45:17;5.25;;;2.85;;
52360;SDS011;38294;42.966;1.608;2022-12-18T07:47:42;5.88;;;2.95;;
52360;SDS011;38294;42.966;1.608;2022-12-18T07:50:08;6.60;;;3.80;;
52360;SDS011;38294;42.966;1.608;2022-12-18T07:52:34;4.82;;;3.20;;
52360;SDS011;38294;42.966;1.608;2022-12-18T07:54:59;3.72;;;3.10;;
52360;SDS011;38294;42.966;1.608;2022-12-18T07:57:25;5.35;;;3.42;;
52360;SDS011;38294;42.966;1.608;2022-12-18T07:59:50;7.93;;;3.90;;
52360;SDS011;38294;42.966;1.608;2022-12-18T08:02:16;7.57;;;4.45;;
52360;SDS011;38294;42.966;1.608;2022-12-18T08:04:41;5.82;;;3.60;;
52360;SDS011;38294;42.966;1.608;2022-12-18T08:07:07;6.00;;;3.58;;
52360;SDS011;38294;42.966;1.608;2022-12-18T08:09:32;8.93;;;3.72;;
52360;SDS011;38294;42.966;1.608;2022-12-18T08:11:58;7.45;;;3.53;;
52360;SDS011;38294;42.966;1.608;2022-12-18T08:14:24;7.40;;;4.57;;
52360;SDS011;38294;42.966;1.608;2022-12-18T08:16:49;7.88;;;3.78;;
52360;SDS011;38294;42.966;1.608;2022-12-18T08:19:15;6.57;;;4.15;;
52360;SDS011;38294;42.966;1.608;2022-12-18T08:21:40;7.85;;;3.70;;
52360;SDS011;38294;42.966;1.608;2022-12-18T08:24:06;6.00;;;3.47;;
52360;SDS011;38294;42.966;1.608;2022-12-18T08:26:32;5.85;;;3.45;;
52360;SDS011;38294;42.966;1.608;2022-12-18T08:28:58;6.65;;;3.55;;
52360;SDS011;38294;42.966;1.608;2022-12-18T08:31:25;6.88;;;3.63;;
52360;SDS011;38294;42.966;1.608;2022-12-18T08:33:52;8.25;;;4.45;;
52360;SDS011;38294;42.966;1.608;2022-12-18T08:36:19;8.32;;;4.32;;
52360;SDS011;38294;42.966;1.608;2022-12-18T08:38:45;7.85;;;4.97;;
52360;SDS011;38294;42.966;1.608;2022-12-18T08:41:12;8.52;;;4.60;;
52360;SDS011;38294;42.966;1.608;2022-12-18T08:43:38;8.90;;;4.28;;
52360;SDS011;38294;42.966;1.608;2022-12-18T08:46:23;6.30;;;4.00;;
52360;SDS011;38294;42.966;1.608;2022-12-18T08:48:51;5.85;;;3.83;;
52360;SDS011;38294;42.966;1.608;2022-12-18T08:51:17;7.50;;;4.25;;
52360;SDS011;38294;42.966;1.608;2022-12-18T08:53:43;10.20;;;4.43;;
52360;SDS011;38294;42.966;1.608;2022-12-18T08:56:09;8.35;;;4.00;;
52360;SDS011;38294;42.966;1.608;2022-12-18T08:58:35;6.03;;;4.43;;
52360;SDS011;38294;42.966;1.608;2022-12-18T09:01:02;8.15;;;4.53;;
52360;SDS011;38294;42.966;1.608;2022-12-18T09:03:28;9.10;;;4.57;;
52360;SDS011;38294;42.966;1.608;2022-12-18T09:05:54;12.07;;;5.35;;
52360;SDS011;38294;42.966;1.608;2022-12-18T09:08:19;8.18;;;4.93;;
52360;SDS011;38294;42.966;1.608;2022-12-18T09:10:45;8.00;;;5.05;;
52360;SDS011;38294;42.966;1.608;2022-12-18T09:13:12;10.38;;;5.25;;
52360;SDS011;38294;42.966;1.608;2022-12-18T09:18:13;10.85;;;4.97;;
52360;SDS011;38294;42.966;1.608;2022-12-18T09:20:40;8.82;;;4.70;;
52360;SDS011;38294;42.966;1.608;2022-12-18T09:23:06;11.02;;;4.88;;
52360;SDS011;38294;42.966;1.608;2022-12-18T09:25:32;6.40;;;4.22;;
52360;SDS011;38294;42.966;1.608;2022-12-18T09:28:01;6.57;;;4.22;;
52360;SDS011;38294;42.966;1.608;2022-12-18T09:30:28;8.90;;;4.05;;
52360;SDS011;38294;42.966;1.608;2022-12-18T09:32:53;7.00;;;4.10;;
52360;SDS011;38294;42.966;1.608;2022-12-18T09:35:19;7.97;;;4.35;;
52360;SDS011;38294;42.966;1.608;2022-12-18T09:37:45;4.25;;;3.38;;
52360;SDS011;38294;42.966;1.608;2022-12-18T09:40:18;6.75;;;4.15;;
52360;SDS011;38294;42.966;1.608;2022-12-18T09:42:47;7.68;;;4.28;;
52360;SDS011;38294;42.966;1.608;2022-12-18T09:45:20;6.22;;;3.70;;
52360;SDS011;38294;42.966;1.608;2022-12-18T09:47:46;6.07;;;3.95;;
52360;SDS011;38294;42.966;1.608;2022-12-18T09:50:29;5.22;;;3.47;;
52360;SDS011;38294;42.966;1.608;2022-12-18T09:52:59;3.35;;;2.80;;
52360;SDS011;38294;42.966;1.608;2022-12-18T09:55:35;9.35;;;3.20;;
52360;SDS011;38294;42.966;1.608;2022-12-18T10:01:14;3.95;;;2.50;;
52360;SDS011;38294;42.966;1.608;2022-12-18T10:03:43;8.63;;;3.10;;
52360;SDS011;38294;42.966;1.608;2022-12-18T10:09:00;5.53;;;3.30;;
52360;SDS011;38294;42.966;1.608;2022-12-18T10:27:25;5.53;;;3.40;;
52360;SDS011;38294;42.966;1.608;2022-12-18T10:29:52;5.63;;;3.25;;
52360;SDS011;38294;42.966;1.608;2022-12-18T10:32:22;5.95;;;3.53;;
52360;SDS011;38294;42.966;1.608;2022-12-18T10:37:18;6.55;;;3.90;;
52360;SDS011;38294;42.966;1.608;2022-12-18T10:39:46;9.00;;;4.57;;
52360;SDS011;38294;42.966;1.608;2022-12-18T10:42:32;8.75;;;4.68;;
52360;SDS011;38294;42.966;1.608;2022-12-18T10:45:02;8.05;;;4.97;;
52360;SDS011;38294;42.966;1.608;2022-12-18T10:47:31;9.23;;;5.20;;
52360;SDS011;38294;42.966;1.608;2022-12-18T10:49:59;7.70;;;4.85;;
52360;SDS011;38294;42.966;1.608;2022-12-18T10:52:25;7.55;;;4.15;;
52360;SDS011;38294;42.966;1.608;2022-12-18T10:54:53;6.88;;;3.83;;
52360;SDS011;38294;42.966;1.608;2022-12-18T10:59:55;8.65;;;4.30;;
52360;SDS011;38294;42.966;1.608;2022-12-18T11:02:26;6.43;;;4.07;;
52360;SDS011;38294;42.966;1.608;2022-12-18T11:05:00;6.10;;;3.47;;
52360;SDS011;38294;42.966;1.608;2022-12-18T11:07:26;7.18;;;3.47;;
52360;SDS011;38294;42.966;1.608;2022-12-18T11:10:15;9.05;;;3.80;;
52360;SDS011;38294;42.966;1.608;2022-12-18T11:12:43;5.75;;;3.28;;
52360;SDS011;38294;42.966;1.608;2022-12-18T11:15:15;5.18;;;3.13;;
52360;SDS011;38294;42.966;1.608;2022-12-18T11:17:44;5.78;;;3.42;;
52360;SDS011;38294;42.966;1.608;2022-12-18T11:23:03;6.40;;;3.50;;
52360;SDS011;38294;42.966;1.608;2022-12-18T11:25:31;6.05;;;3.70;;
52360;SDS011;38294;42.966;1.608;2022-12-18T11:28:02;5.70;;;3.40;;
52360;SDS011;38294;42.966;1.608;2022-12-18T11:33:05;4.93;;;3.60;;
52360;SDS011;38294;42.966;1.608;2022-12-18T11:35:45;5.38;;;3.30;;
52360;SDS011;38294;42.966;1.608;2022-12-18T11:38:26;4.88;;;3.05;;
52360;SDS011;38294;42.966;1.608;2022-12-18T11:43:46;4.00;;;2.92;;
52360;SDS011;38294;42.966;1.608;2022-12-18T11:46:37;7.75;;;2.90;;
52360;SDS011;38294;42.966;1.608;2022-12-18T11:49:13;5.10;;;2.70;;
52360;SDS011;38294;42.966;1.608;2022-12-18T11:51:49;6.38;;;3.13;;
52360;SDS011;38294;42.966;1.608;2022-12-18T11:54:19;5.82;;;3.47;;
52360;SDS011;38294;42.966;1.608;2022-12-18T11:56:51;5.40;;;2.70;;
52360;SDS011;38294;42.966;1.608;2022-12-18T12:02:17;4.45;;;2.65;;
52360;SDS011;38294;42.966;1.608;2022-12-18T12:10:10;5.32;;;2.90;;
52360;SDS011;38294;42.966;1.608;2022-12-18T12:21:17;6.28;;;3.30;;
52360;SDS011;38294;42.966;1.608;2022-12-18T12:27:18;5.13;;;3.50;;
52360;SDS011;38294;42.966;1.608;2022-12-18T12:32:43;5.15;;;3.50;;
52360;SDS011;38294;42.966;1.608;2022-12-18T12:41:08;5.50;;;3.33;;
52360;SDS011;38294;42.966;1.608;2022-12-18T12:43:56;5.90;;;3.08;;
52360;SDS011;38294;42.966;1.608;2022-12-18T12:46:26;5.18;;;3.35;;
52360;SDS011;38294;42.966;1.608;2022-12-18T12:51:35;4.63;;;3.28;;
52360;SDS011;38294;42.966;1.608;2022-12-18T12:54:05;8.75;;;3.33;;
52360;SDS011;38294;42.966;1.608;2022-12-18T12:56:45;3.85;;;2.95;;
52360;SDS011;38294;42.966;1.608;2022-12-18T12:59:31;4.97;;;3.13;;
52360;SDS011;38294;42.966;1.608;2022-12-18T13:04:49;4.00;;;2.90;;
52360;SDS011;38294;42.966;1.608;2022-12-18T13:07:31;4.40;;;2.95;;
52360;SDS011;38294;42.966;1.608;2022-12-18T13:10:14;4.32;;;3.05;;
52360;SDS011;38294;42.966;1.608;2022-12-18T13:15:34;6.20;;;2.85;;
52360;SDS011;38294;42.966;1.608;2022-12-18T13:20:34;5.72;;;3.17;;
52360;SDS011;38294;42.966;1.608;2022-12-18T13:23:01;4.50;;;3.03;;
52360;SDS011;38294;42.966;1.608;2022-12-18T13:25:57;4.18;;;2.80;;
52360;SDS011;38294;42.966;1.608;2022-12-18T13:31:15;4.97;;;2.85;;
52360;SDS011;38294;42.966;1.608;2022-12-18T13:34:24;5.78;;;3.40;;
52360;SDS011;38294;42.966;1.608;2022-12-18T13:36:52;4.82;;;2.70;;
52360;SDS011;38294;42.966;1.608;2022-12-18T13:41:46;4.15;;;3.05;;
52360;SDS011;38294;42.966;1.608;2022-12-18T13:46:48;5.97;;;3.47;;
52360;SDS011;38294;42.966;1.608;2022-12-18T13:49:21;4.82;;;2.70;;
52360;SDS011;38294;42.966;1.608;2022-12-18T13:51:53;4.90;;;3.30;;
52360;SDS011;38294;42.966;1.608;2022-12-18T13:57:02;6.55;;;3.78;;
52360;SDS011;38294;42.966;1.608;2022-12-18T14:02:15;5.63;;;3.85;;
52360;SDS011;38294;42.966;1.608;2022-12-18T14:04:46;7.03;;;3.75;;
52360;SDS011;38294;42.966;1.608;2022-12-18T14:07:17;6.50;;;3.78;;
52360;SDS011;38294;42.966;1.608;2022-12-18T14:09:47;4.63;;;3.03;;
52360;SDS011;38294;42.966;1.608;2022-12-18T14:12:25;5.18;;;3.10;;
52360;SDS011;38294;42.966;1.608;2022-12-18T14:15:20;5.70;;;3.67;;
52360;SDS011;38294;42.966;1.608;2022-12-18T14:20:22;5.68;;;3.53;;
52360;SDS011;38294;42.966;1.608;2022-12-18T14:22:56;5.72;;;3.53;;
52360;SDS011;38294;42.966;1.608;2022-12-18T14:25:24;6.88;;;3.25;;
52360;SDS011;38294;42.966;1.608;2022-12-18T14:30:36;5.45;;;3.58;;
52360;SDS011;38294;42.966;1.608;2022-12-18T14:33:14;5.32;;;3.42;;
52360;SDS011;38294;42.966;1.608;2022-12-18T14:35:57;3.78;;;2.83;;
52360;SDS011;38294;42.966;1.608;2022-12-18T14:41:00;5.78;;;3.75;;
52360;SDS011;38294;42.966;1.608;2022-12-18T14:43:39;12.23;;;5.63;;
52360;SDS011;38294;42.966;1.608;2022-12-18T14:46:39;10.57;;;5.22;;
52360;SDS011;38294;42.966;1.608;2022-12-18T14:52:05;5.82;;;3.20;;
52360;SDS011;38294;42.966;1.608;2022-12-18T14:54:45;6.45;;;3.92;;
52360;SDS011;38294;42.966;1.608;2022-12-18T14:57:21;6.03;;;4.10;;
52360;SDS011;38294;42.966;1.608;2022-12-18T14:59:48;9.48;;;5.05;;
52360;SDS011;38294;42.966;1.608;2022-12-18T15:05:00;7.65;;;4.18;;
52360;SDS011;38294;42.966;1.608;2022-12-18T15:07:39;9.25;;;4.05;;
52360;SDS011;38294;42.966;1.608;2022-12-18T15:10:19;9.77;;;4.50;;
52360;SDS011;38294;42.966;1.608;2022-12-18T15:12:50;7.35;;;4.57;;
52360;SDS011;38294;42.966;1.608;2022-12-18T15:20:32;7.65;;;4.00;;
52360;SDS011;38294;42.966;1.608;2022-12-18T15:26:06;7.20;;;3.97;;
52360;SDS011;38294;42.966;1.608;2022-12-18T15:33:37;8.35;;;4.40;;
52360;SDS011;38294;42.966;1.608;2022-12-18T15:36:09;8.05;;;4.40;;
52360;SDS011;38294;42.966;1.608;2022-12-18T15:38:38;6.07;;;4.13;;
52360;SDS011;38294;42.966;1.608;2022-12-18T15:41:04;5.40;;;3.63;;
52360;SDS011;38294;42.966;1.608;2022-12-18T15:43:30;6.95;;;4.30;;
52360;SDS011;38294;42.966;1.608;2022-12-18T15:46:20;6.93;;;3.97;;
52360;SDS011;38294;42.966;1.608;2022-12-18T15:48:57;9.07;;;4.53;;
52360;SDS011;38294;42.966;1.608;2022-12-18T15:51:28;8.48;;;4.18;;
52360;SDS011;38294;42.966;1.608;2022-12-18T15:53:56;8.27;;;4.25;;
52360;SDS011;38294;42.966;1.608;2022-12-18T15:56:24;5.90;;;3.90;;
52360;SDS011;38294;42.966;1.608;2022-12-18T15:59:14;7.05;;;4.13;;
52360;SDS011;38294;42.966;1.608;2022-12-18T16:01:43;7.05;;;4.65;;
52360;SDS011;38294;42.966;1.608;2022-12-18T16:04:11;9.70;;;5.30;;
52360;SDS011;38294;42.966;1.608;2022-12-18T16:06:39;8.88;;;4.70;;
52360;SDS011;38294;42.966;1.608;2022-12-18T16:09:05;10.18;;;5.28;;
52360;SDS011;38294;42.966;1.608;2022-12-18T16:11:31;7.93;;;5.00;;
52360;SDS011;38294;42.966;1.608;2022-12-18T16:16:39;11.57;;;6.22;;
52360;SDS011;38294;42.966;1.608;2022-12-18T16:19:04;12.75;;;5.55;;
52360;SDS011;38294;42.966;1.608;2022-12-18T16:21:30;10.23;;;5.57;;
52360;SDS011;38294;42.966;1.608;2022-12-18T16:23:56;11.90;;;6.38;;
52360;SDS011;38294;42.966;1.608;2022-12-18T16:26:21;12.20;;;5.65;;
52360;SDS011;38294;42.966;1.608;2022-12-18T16:28:47;13.50;;;7.45;;
52360;SDS011;38294;42.966;1.608;2022-12-18T16:31:12;10.05;;;5.65;;
52360;SDS011;38294;42.966;1.608;2022-12-18T16:33:38;11.57;;;6.15;;
52360;SDS011;38294;42.966;1.608;2022-12-18T16:36:03;13.52;;;6.57;;
52360;SDS011;38294;42.966;1.608;2022-12-18T16:38:29;17.00;;;7.53;;
52360;SDS011;38294;42.966;1.608;2022-12-18T16:40:54;17.33;;;6.93;;
52360;SDS011;38294;42.966;1.608;2022-12-18T16:43:39;12.20;;;6.97;;
52360;SDS011;38294;42.966;1.608;2022-12-18T16:46:04;14.57;;;6.50;;
52360;SDS011;38294;42.966;1.608;2022-12-18T16:48:30;33.58;;;13.18;;
52360;SDS011;38294;42.966;1.608;2022-12-18T16:51:02;13.82;;;6.63;;
52360;SDS011;38294;42.966;1.608;2022-12-18T16:53:29;22.65;;;9.95;;
52360;SDS011;38294;42.966;1.608;2022-12-18T16:55:56;18.50;;;8.77;;
52360;SDS011;38294;42.966;1.608;2022-12-18T16:58:22;39.22;;;13.88;;
52360;SDS011;38294;42.966;1.608;2022-12-18T17:00:48;45.17;;;13.98;;
52360;SDS011;38294;42.966;1.608;2022-12-18T17:03:13;32.40;;;11.48;;
52360;SDS011;38294;42.966;1.608;2022-12-18T17:05:39;21.02;;;8.40;;
52360;SDS011;38294;42.966;1.608;2022-12-18T17:08:04;14.40;;;8.25;;
52360;SDS011;38294;42.966;1.608;2022-12-18T17:10:30;24.00;;;8.95;;
52360;SDS011;38294;42.966;1.608;2022-12-18T17:12:56;18.17;;;10.00;;
52360;SDS011;38294;42.966;1.608;2022-12-18T17:15:21;25.58;;;10.93;;
52360;SDS011;38294;42.966;1.608;2022-12-18T17:17:47;19.27;;;9.02;;
52360;SDS011;38294;42.966;1.608;2022-12-18T17:20:12;16.58;;;8.35;;
52360;SDS011;38294;42.966;1.608;2022-12-18T17:22:38;21.05;;;8.45;;
52360;SDS011;38294;42.966;1.608;2022-12-18T17:25:04;20.52;;;9.88;;
52360;SDS011;38294;42.966;1.608;2022-12-18T17:27:29;20.52;;;9.68;;
52360;SDS011;38294;42.966;1.608;2022-12-18T17:29:55;24.52;;;10.40;;
52360;SDS011;38294;42.966;1.608;2022-12-18T17:32:20;33.97;;;11.68;;
52360;SDS011;38294;42.966;1.608;2022-12-18T17:34:46;27.05;;;10.30;;
52360;SDS011;38294;42.966;1.608;2022-12-18T17:37:11;25.52;;;10.73;;
52360;SDS011;38294;42.966;1.608;2022-12-18T17:39:38;37.30;;;11.80;;
52360;SDS011;38294;42.966;1.608;2022-12-18T17:42:04;29.67;;;10.90;;
52360;SDS011;38294;42.966;1.608;2022-12-18T17:44:29;24.27;;;10.23;;
52360;SDS011;38294;42.966;1.608;2022-12-18T17:46:55;23.80;;;9.27;;
52360;SDS011;38294;42.966;1.608;2022-12-18T17:49:20;22.88;;;9.18;;
52360;SDS011;38294;42.966;1.608;2022-12-18T17:51:46;24.20;;;11.85;;
52360;SDS011;38294;42.966;1.608;2022-12-18T17:54:12;26.50;;;12.55;;
52360;SDS011;38294;42.966;1.608;2022-12-18T17:56:37;24.48;;;10.85;;
52360;SDS011;38294;42.966;1.608;2022-12-18T17:59:03;18.85;;;10.23;;
52360;SDS011;38294;42.966;1.608;2022-12-18T18:01:29;24.08;;;11.02;;
52360;SDS011;38294;42.966;1.608;2022-12-18T18:03:54;22.83;;;10.52;;
52360;SDS011;38294;42.966;1.608;2022-12-18T18:06:21;23.73;;;11.38;;
52360;SDS011;38294;42.966;1.608;2022-12-18T18:08:47;20.50;;;10.07;;
52360;SDS011;38294;42.966;1.608;2022-12-18T18:11:14;26.25;;;12.30;;
52360;SDS011;38294;42.966;1.608;2022-12-18T18:14:00;27.52;;;12.27;;
52360;SDS011;38294;42.966;1.608;2022-12-18T18:16:33;26.10;;;9.82;;
52360;SDS011;38294;42.966;1.608;2022-12-18T18:19:01;20.98;;;10.68;;
52360;SDS011;38294;42.966;1.608;2022-12-18T18:21:29;20.00;;;11.57;;
52360;SDS011;38294;42.966;1.608;2022-12-18T18:23:58;23.10;;;11.20;;
52360;SDS011;38294;42.966;1.608;2022-12-18T18:26:25;24.25;;;11.07;;
52360;SDS011;38294;42.966;1.608;2022-12-18T18:28:53;20.98;;;10.93;;
52360;SDS011;38294;42.966;1.608;2022-12-18T18:31:19;20.95;;;10.60;;
52360;SDS011;38294;42.966;1.608;2022-12-18T18:33:44;33.83;;;11.27;;
52360;SDS011;38294;42.966;1.608;2022-12-18T18:36:10;29.13;;;11.27;;
52360;SDS011;38294;42.966;1.608;2022-12-18T18:38:36;26.10;;;12.15;;
52360;SDS011;38294;42.966;1.608;2022-12-18T18:41:02;27.65;;;12.40;;
52360;SDS011;38294;42.966;1.608;2022-12-18T18:43:29;28.02;;;12.85;;
52360;SDS011;38294;42.966;1.608;2022-12-18T18:45:55;26.20;;;12.60;;
52360;SDS011;38294;42.966;1.608;2022-12-18T18:48:22;28.75;;;13.45;;
52360;SDS011;38294;42.966;1.608;2022-12-18T18:50:57;32.53;;;14.75;;
52360;SDS011;38294;42.966;1.608;2022-12-18T18:53:26;27.65;;;14.57;;
52360;SDS011;38294;42.966;1.608;2022-12-18T18:55:53;30.08;;;14.27;;
52360;SDS011;38294;42.966;1.608;2022-12-18T18:58:22;32.10;;;14.35;;
52360;SDS011;38294;42.966;1.608;2022-12-18T19:00:56;32.00;;;13.95;;
52360;SDS011;38294;42.966;1.608;2022-12-18T19:03:23;37.38;;;15.60;;
52360;SDS011;38294;42.966;1.608;2022-12-18T19:05:50;29.65;;;15.25;;
52360;SDS011;38294;42.966;1.608;2022-12-18T19:08:16;30.70;;;13.32;;
52360;SDS011;38294;42.966;1.608;2022-12-18T19:10:42;26.25;;;13.32;;
52360;SDS011;38294;42.966;1.608;2022-12-18T19:13:09;32.03;;;13.45;;
52360;SDS011;38294;42.966;1.608;2022-12-18T19:15:47;28.52;;;13.88;;
52360;SDS011;38294;42.966;1.608;2022-12-18T19:18:12;27.15;;;12.77;;
52360;SDS011;38294;42.966;1.608;2022-12-18T19:20:38;24.40;;;12.48;;
52360;SDS011;38294;42.966;1.608;2022-12-18T19:23:04;26.98;;;13.30;;
52360;SDS011;38294;42.966;1.608;2022-12-18T19:25:29;32.72;;;13.57;;
52360;SDS011;38294;42.966;1.608;2022-12-18T19:27:57;31.95;;;14.05;;
52360;SDS011;38294;42.966;1.608;2022-12-18T19:30:23;24.33;;;12.07;;
52360;SDS011;38294;42.966;1.608;2022-12-18T19:32:49;26.63;;;12.52;;
52360;SDS011;38294;42.966;1.608;2022-12-18T19:35:15;22.88;;;12.32;;
52360;SDS011;38294;42.966;1.608;2022-12-18T19:37:40;22.95;;;12.13;;
52360;SDS011;38294;42.966;1.608;2022-12-18T19:40:06;25.73;;;12.73;;
52360;SDS011;38294;42.966;1.608;2022-12-18T19:42:32;21.83;;;11.50;;
52360;SDS011;38294;42.966;1.608;2022-12-18T19:44:58;24.08;;;11.93;;
52360;SDS011;38294;42.966;1.608;2022-12-18T19:47:23;26.92;;;12.77;;
52360;SDS011;38294;42.966;1.608;2022-12-18T19:49:49;25.13;;;12.75;;
52360;SDS011;38294;42.966;1.608;2022-12-18T19:52:15;27.00;;;11.35;;
52360;SDS011;38294;42.966;1.608;2022-12-18T19:54:40;21.83;;;11.93;;
52360;SDS011;38294;42.966;1.608;2022-12-18T19:57:06;24.15;;;12.80;;
52360;SDS011;38294;42.966;1.608;2022-12-18T19:59:35;24.88;;;11.90;;
52360;SDS011;38294;42.966;1.608;2022-12-18T20:02:01;26.67;;;13.65;;
52360;SDS011;38294;42.966;1.608;2022-12-18T20:04:27;23.25;;;12.43;;
52360;SDS011;38294;42.966;1.608;2022-12-18T20:06:53;28.25;;;12.30;;
52360;SDS011;38294;42.966;1.608;2022-12-18T20:09:19;25.50;;;12.40;;
52360;SDS011;38294;42.966;1.608;2022-12-18T20:11:45;23.27;;;12.32;;
52360;SDS011;38294;42.966;1.608;2022-12-18T20:14:12;25.38;;;12.63;;
52360;SDS011;38294;42.966;1.608;2022-12-18T20:16:39;28.98;;;13.30;;
52360;SDS011;38294;42.966;1.608;2022-12-18T20:19:05;31.98;;;13.52;;
52360;SDS011;38294;42.966;1.608;2022-12-18T20:21:33;23.95;;;12.70;;
52360;SDS011;38294;42.966;1.608;2022-12-18T20:23:59;30.40;;;13.43;;
52360;SDS011;38294;42.966;1.608;2022-12-18T20:26:26;25.63;;;11.27;;
52360;SDS011;38294;42.966;1.608;2022-12-18T20:28:52;22.15;;;11.48;;